createdAt,value
2018-12-19T00:01:57.507Z,101600.74
2018-12-19T00:04:26.226Z,101599.86
2018-12-19T00:06:54.791Z,101592.04
2018-12-19T00:09:23.854Z,101552.22
2018-12-19T00:11:52.438Z,101586.81
2018-12-19T00:14:21.337Z,101583.78
2018-12-19T00:16:49.843Z,101583.77
2018-12-19T00:19:18.768Z,101577.69
2018-12-19T00:21:47.310Z,101580.30
2018-12-19T00:24:16.214Z,101577.26
2018-12-19T00:26:44.798Z,101568.98
2018-12-19T00:29:13.389Z,101567.25
2018-12-19T00:31:42.153Z,101565.07
2018-12-19T00:34:10.709Z,101566.83
2018-12-19T00:36:39.503Z,101562.45
2018-12-19T00:39:09.644Z,101559.42
2018-12-19T00:41:38.847Z,101520.47
2018-12-19T00:44:07.375Z,101552.50
2018-12-19T00:46:36.237Z,101554.64
2018-12-19T00:49:04.818Z,101545.52
2018-12-19T00:51:33.477Z,101552.91
2018-12-19T00:54:02.026Z,101522.59
2018-12-19T00:56:30.533Z,101536.38
2018-12-19T00:58:59.411Z,101538.55
2018-12-19T01:01:28.026Z,101532.91
2018-12-19T01:03:57.036Z,101525.95
2018-12-19T01:06:25.867Z,101533.33
2018-12-19T01:08:54.553Z,101542.45
2018-12-19T01:11:23.138Z,101539.84
2018-12-19T01:13:51.681Z,101540.73
2018-12-19T01:16:20.527Z,101476.19
2018-12-19T01:18:49.090Z,101529.86
2018-12-19T01:21:18.005Z,101533.75
2018-12-19T01:23:46.502Z,101528.12
2018-12-19T01:26:15.277Z,101538.53
2018-12-19T01:28:43.842Z,101538.11
2018-12-19T01:31:12.418Z,101532.89
2018-12-19T01:33:41.050Z,101539.81
2018-12-19T01:36:09.606Z,101529.41
2018-12-19T01:38:38.321Z,101476.20
2018-12-19T01:41:06.951Z,101535.02
2018-12-19T01:43:35.972Z,101527.22
2018-12-19T01:46:04.481Z,101533.30
2018-12-19T01:48:33.054Z,101531.13
2018-12-19T01:51:01.689Z,101526.36
2018-12-19T01:53:30.273Z,101527.20
2018-12-19T01:55:59.266Z,101517.22
2018-12-19T01:58:27.830Z,101517.63
2018-12-19T02:00:56.629Z,101407.73
2018-12-19T02:03:25.218Z,101518.92
2018-12-19T02:05:53.861Z,101507.63
2018-12-19T02:08:22.406Z,101511.12
2018-12-19T02:10:50.910Z,101505.03
2018-12-19T02:13:19.598Z,101449.66
2018-12-19T02:15:48.118Z,101501.58
2018-12-19T02:18:17.434Z,101509.39
2018-12-19T02:20:46.026Z,101504.62
2018-12-19T02:23:14.719Z,101504.59
2018-12-19T02:25:43.380Z,101500.69
2018-12-19T02:28:12.138Z,101501.98
2018-12-19T02:30:40.781Z,101504.18
2018-12-19T02:33:09.339Z,101508.48
2018-12-19T02:35:38.881Z,101495.46
2018-12-19T02:38:07.399Z,101499.36
2018-12-19T02:40:36.390Z,101504.14
2018-12-19T02:43:05.038Z,101490.22
2018-12-19T02:45:33.991Z,101494.55
2018-12-19T02:48:02.558Z,101502.81
2018-12-19T02:50:31.169Z,101487.59
2018-12-19T02:52:59.699Z,101498.02
2018-12-19T02:55:28.428Z,101492.78
2018-12-19T02:57:57.065Z,101486.67
2018-12-19T03:00:25.689Z,101486.26
2018-12-19T03:02:54.615Z,101482.75
2018-12-19T03:05:23.406Z,101433.92
2018-12-19T03:07:52.092Z,101486.66
2018-12-19T03:10:20.677Z,101482.30
2018-12-19T03:12:49.386Z,101479.70
2018-12-19T03:15:18.007Z,101453.30
2018-12-19T03:17:46.558Z,101479.70
2018-12-19T03:20:15.444Z,101460.55
2018-12-19T03:22:43.975Z,101466.63
2018-12-19T03:25:12.519Z,101466.63
2018-12-19T03:27:41.062Z,101452.28
2018-12-19T03:30:09.927Z,101446.63
2018-12-19T03:32:39.015Z,101408.59
2018-12-19T03:35:07.614Z,101442.70
2018-12-19T03:37:36.464Z,101444.00
2018-12-19T03:40:05.530Z,101439.70
2018-12-19T03:45:13.302Z,101436.19
2018-12-19T03:47:41.818Z,101429.25
2018-12-19T03:50:11.590Z,101426.20
2018-12-19T03:52:40.146Z,101423.16
2018-12-19T03:55:08.974Z,101420.09
2018-12-19T04:00:16.395Z,101414.88
2018-12-19T04:02:45.357Z,101300.33
2018-12-19T04:05:13.937Z,101411.84
2018-12-19T04:07:43.335Z,101409.23
2018-12-19T04:10:12.000Z,101399.66
2018-12-19T04:12:41.023Z,101397.05
2018-12-19T04:15:09.599Z,101395.30
2018-12-19T04:17:38.220Z,101400.52
2018-12-19T04:20:07.013Z,101355.55
2018-12-19T04:22:35.531Z,101390.05
2018-12-19T04:25:04.421Z,101389.14
2018-12-19T04:27:33.003Z,101378.70
2018-12-19T04:30:01.934Z,101357.00
2018-12-19T04:32:30.771Z,101353.50
2018-12-19T04:34:59.444Z,101353.95
2018-12-19T04:37:28.064Z,101348.29
2018-12-19T04:40:05.088Z,101349.18
2018-12-19T04:42:28.065Z,101350.91
2018-12-19T04:44:56.750Z,101339.56
2018-12-19T04:47:25.277Z,101343.96
2018-12-19T04:49:53.804Z,101334.35
2018-12-19T04:52:22.706Z,101331.74
2018-12-19T04:54:51.335Z,101331.78
2018-12-19T04:57:20.531Z,101348.29
2018-12-19T04:59:49.111Z,101337.44
2018-12-19T05:02:17.903Z,101333.08
2018-12-19T05:04:46.502Z,101306.73
2018-12-19T05:07:15.135Z,101333.94
2018-12-19T05:09:43.961Z,101334.35
2018-12-19T05:12:12.537Z,101330.92
2018-12-19T05:17:19.141Z,101338.72
2018-12-19T05:19:48.030Z,101339.53
2018-12-19T05:22:16.865Z,101283.41
2018-12-19T05:24:45.450Z,101338.22
2018-12-19T05:27:14.407Z,101340.40
2018-12-19T05:29:43.061Z,101247.96
2018-12-19T05:32:11.782Z,101338.20
2018-12-19T05:34:40.329Z,101329.96
2018-12-19T05:37:08.930Z,101330.85
2018-12-19T05:39:37.499Z,101336.86
2018-12-19T05:42:06.077Z,101326.88
2018-12-19T05:44:34.774Z,101315.13
2018-12-19T05:47:03.355Z,101316.44
2018-12-19T05:49:32.283Z,101315.13
2018-12-19T05:52:00.798Z,101314.26
2018-12-19T05:54:29.319Z,101302.09
2018-12-19T05:56:57.938Z,101307.31
2018-12-19T05:59:26.612Z,101305.98
2018-12-19T06:01:55.407Z,101308.17
2018-12-19T06:06:44.637Z,101303.84
2018-12-19T06:09:13.307Z,101308.17
2018-12-19T06:11:42.006Z,101286.58
2018-12-19T06:14:10.604Z,101309.02
2018-12-19T06:16:39.494Z,101304.66
2018-12-19T06:19:08.165Z,101308.98
2018-12-19T06:21:36.943Z,101306.41
2018-12-19T06:24:05.614Z,101301.61
2018-12-19T06:26:34.403Z,101292.03
2018-12-19T06:29:03.007Z,101292.03
2018-12-19T06:31:32.078Z,101300.72
2018-12-19T06:34:00.892Z,101292.85
2018-12-19T06:36:29.596Z,101291.99
2018-12-19T06:38:58.825Z,101233.33
2018-12-19T06:41:27.383Z,101290.23
2018-12-19T06:43:56.343Z,101302.80
2018-12-19T06:46:25.134Z,101297.59
2018-12-19T06:48:54.612Z,101300.64
2018-12-19T06:51:23.222Z,101301.05
2018-12-19T06:53:51.904Z,101300.16
2018-12-19T06:56:20.594Z,101289.80
2018-12-19T06:58:49.635Z,101304.52
2018-12-19T07:01:18.383Z,101273.39
2018-12-19T07:03:46.979Z,101304.47
2018-12-19T07:06:15.950Z,101234.45
2018-12-19T07:08:44.778Z,101299.67
2018-12-19T07:11:14.372Z,101305.30
2018-12-19T07:13:43.025Z,101299.23
2018-12-19T07:16:12.056Z,101306.61
2018-12-19T07:18:40.787Z,101301.80
2018-12-19T07:21:09.405Z,101306.14
2018-12-19T07:23:38.141Z,101307.42
2018-12-19T07:26:06.784Z,101299.59
2018-12-19T07:28:35.603Z,101305.20
2018-12-19T07:31:04.234Z,101296.50
2018-12-19T07:33:33.046Z,101297.81
2018-12-19T07:36:01.687Z,101300.38
2018-12-19T07:38:30.583Z,101294.75
2018-12-19T07:40:59.355Z,101291.73
2018-12-19T07:43:28.507Z,101289.92
2018-12-19T07:45:57.240Z,101288.58
2018-12-19T07:48:26.096Z,101289.45
2018-12-19T07:50:54.682Z,101277.70
2018-12-19T07:53:23.194Z,101274.20
2018-12-19T07:55:52.129Z,101285.11
2018-12-19T07:58:20.864Z,101271.14
2018-12-19T08:03:28.133Z,101291.13
2018-12-19T08:05:56.890Z,101280.66
2018-12-19T08:08:25.547Z,101276.31
2018-12-19T08:10:54.227Z,101276.73
2018-12-19T08:13:23.044Z,101267.14
2018-12-19T08:15:51.636Z,101257.95
2018-12-19T08:18:20.467Z,101249.72
2018-12-19T08:20:49.407Z,101254.05
2018-12-19T08:23:18.345Z,101254.45
2018-12-19T08:25:47.112Z,101222.97
2018-12-19T08:28:15.639Z,101249.19
2018-12-19T08:30:44.563Z,101253.03
2018-12-19T08:33:13.118Z,101250.89
2018-12-19T08:35:41.960Z,101242.57
2018-12-19T08:38:11.232Z,101244.77
2018-12-19T08:40:40.009Z,101246.44
2018-12-19T08:43:08.555Z,101229.05
2018-12-19T08:45:37.572Z,101232.52
2018-12-19T08:48:06.173Z,101226.90
2018-12-19T08:50:34.778Z,101237.25
2018-12-19T08:53:03.658Z,101239.84
2018-12-19T08:55:32.229Z,101224.55
2018-12-19T08:58:01.129Z,101230.63
2018-12-19T09:00:29.691Z,101222.80
2018-12-19T09:02:58.357Z,101226.66
2018-12-19T09:05:26.944Z,101213.61
2018-12-19T09:07:55.498Z,101216.22
2018-12-19T09:10:24.175Z,101215.76
2018-12-19T09:12:52.719Z,101220.94
2018-12-19T09:15:27.829Z,101224.83
2018-12-19T09:17:56.931Z,101110.66
2018-12-19T09:20:25.479Z,101219.98
2018-12-19T09:22:54.378Z,101220.84
2018-12-19T09:25:22.947Z,101215.61
2018-12-19T09:27:51.607Z,101218.20
2018-12-19T09:30:20.346Z,101213.41
2018-12-19T09:32:48.858Z,101212.08
2018-12-19T09:35:17.837Z,101159.13
2018-12-19T09:37:46.366Z,101202.01
2018-12-19T09:40:15.347Z,101198.09
2018-12-19T09:42:43.941Z,101195.43
2018-12-19T09:45:12.771Z,101193.66
2018-12-19T09:47:41.351Z,101183.21
2018-12-19T09:50:09.898Z,101174.47
2018-12-19T09:52:38.803Z,101149.41
2018-12-19T09:55:07.350Z,101165.33
2018-12-19T09:57:36.482Z,101157.03
2018-12-19T10:00:06.930Z,101147.45
2018-12-19T10:02:35.818Z,101150.85
2018-12-19T10:05:04.398Z,101160.44
2018-12-19T10:07:33.404Z,101156.08
2018-12-19T10:10:01.943Z,101153.44
2018-12-19T10:12:30.711Z,101148.18
2018-12-19T10:14:59.279Z,101128.59
2018-12-19T10:17:27.886Z,101133.38
2018-12-19T10:19:56.536Z,101018.84
2018-12-19T10:22:30.520Z,101127.72
2018-12-19T10:25:04.520Z,101119.44
2018-12-19T10:27:33.248Z,101120.69
2018-12-19T10:30:01.771Z,101120.60
2018-12-19T10:32:35.578Z,101114.04
2018-12-19T10:35:04.603Z,101109.66
2018-12-19T10:37:33.185Z,101107.91
2018-12-19T10:40:01.908Z,101113.08
2018-12-19T10:42:30.440Z,101100.85
2018-12-19T10:44:58.979Z,101109.94
2018-12-19T10:47:27.611Z,101093.07
2018-12-19T10:49:56.224Z,101098.18
2018-12-19T10:52:24.891Z,101108.55
2018-12-19T10:54:53.497Z,101093.70
2018-12-19T10:57:22.516Z,101098.15
2018-12-19T10:59:51.174Z,101089.81
2018-12-19T11:02:19.780Z,101088.45
2018-12-19T11:04:48.390Z,101101.48
2018-12-19T11:07:16.966Z,101091.92
2018-12-19T11:09:45.879Z,101048.95
2018-12-19T11:12:14.477Z,101085.77
2018-12-19T11:14:43.367Z,101091.00
2018-12-19T11:17:12.079Z,101080.54
2018-12-19T11:19:40.829Z,101069.67
2018-12-19T11:22:11.010Z,101075.31
2018-12-19T11:24:40.264Z,101067.03
2018-12-19T11:27:09.064Z,101073.47
2018-12-19T11:29:37.686Z,101072.20
2018-12-19T11:32:06.280Z,101063.61
2018-12-19T11:34:34.926Z,101063.05
2018-12-19T11:37:05.138Z,101044.74
2018-12-19T11:39:33.752Z,101046.09
2018-12-19T11:44:41.527Z,101043.00
2018-12-19T11:47:10.067Z,101046.48
2018-12-19T11:49:38.775Z,100919.91
2018-12-19T11:52:07.387Z,101023.30
2018-12-19T11:54:36.369Z,101018.47
2018-12-19T11:57:05.229Z,101012.41
2018-12-19T11:59:34.446Z,101000.64
2018-12-19T12:02:03.047Z,101002.84
2018-12-19T12:04:31.792Z,100992.76
2018-12-19T12:07:00.778Z,100991.42
2018-12-19T12:09:29.354Z,100983.61
2018-12-19T12:11:57.975Z,100954.89
2018-12-19T12:14:26.678Z,100990.55
2018-12-19T12:16:55.583Z,100987.03
2018-12-19T12:19:24.130Z,100976.61
2018-12-19T12:21:52.931Z,100977.48
2018-12-19T12:24:21.483Z,100974.79
2018-12-19T12:26:50.147Z,100971.27
2018-12-19T12:29:18.871Z,100972.17
2018-12-19T12:31:47.460Z,100969.96
2018-12-19T12:34:16.468Z,100970.36
2018-12-19T12:36:45.149Z,100974.25
2018-12-19T12:39:13.941Z,100886.95
2018-12-19T12:41:42.510Z,100970.36
2018-12-19T12:44:11.520Z,100975.16
2018-12-19T12:46:40.151Z,100967.28
2018-12-19T12:49:08.861Z,100963.36
2018-12-19T12:51:37.475Z,100971.63
2018-12-19T12:54:06.131Z,100966.41
2018-12-19T12:56:35.006Z,100963.36
2018-12-19T12:59:03.627Z,100961.17
2018-12-19T13:01:32.428Z,100944.58
2018-12-19T13:04:01.004Z,100950.64
2018-12-19T13:06:29.720Z,100952.83
2018-12-19T13:08:58.371Z,100941.64
2018-12-19T13:11:26.924Z,100947.59
2018-12-19T13:13:55.694Z,100947.59
2018-12-19T13:16:24.231Z,100941.59
2018-12-19T13:18:53.301Z,100941.56
2018-12-19T13:21:21.897Z,100932.41
2018-12-19T13:23:50.586Z,100937.20
2018-12-19T13:26:19.141Z,100932.88
2018-12-19T13:28:47.895Z,100925.44
2018-12-19T13:31:16.505Z,100924.13
2018-12-19T13:33:45.041Z,100924.97
2018-12-19T13:36:14.113Z,100855.45
2018-12-19T13:38:42.609Z,100921.44
2018-12-19T13:41:11.738Z,100912.88
2018-12-19T13:43:40.380Z,100915.41
2018-12-19T13:46:09.152Z,100916.72
2018-12-19T13:48:37.753Z,100908.88
2018-12-19T13:51:06.388Z,100890.32
2018-12-19T13:53:35.116Z,100885.81
2018-12-19T13:56:03.900Z,100891.05
2018-12-19T13:58:33.446Z,100851.73
2018-12-19T14:01:02.091Z,100901.11
2018-12-19T14:03:31.071Z,100897.98
2018-12-19T14:05:59.803Z,100908.44
2018-12-19T14:08:28.777Z,100905.39
2018-12-19T14:10:57.379Z,100908.95
2018-12-19T14:13:26.264Z,100913.71
2018-12-19T14:15:54.814Z,100910.66
2018-12-19T14:18:23.394Z,100912.88
2018-12-19T14:20:52.421Z,100908.52
2018-12-19T14:23:21.069Z,100911.97
2018-12-19T14:25:49.931Z,100828.73
2018-12-19T14:28:18.756Z,100917.16
2018-12-19T14:30:47.476Z,100919.77
2018-12-19T14:33:16.226Z,100920.72
2018-12-19T14:35:46.869Z,100913.27
2018-12-19T14:38:15.636Z,100909.38
2018-12-19T14:40:44.355Z,100912.88
2018-12-19T14:43:13.410Z,100905.86
2018-12-19T14:45:42.044Z,100909.31
2018-12-19T14:48:10.679Z,100895.37
2018-12-19T14:50:39.278Z,100901.43
2018-12-19T14:53:08.020Z,100907.49
2018-12-19T14:55:36.658Z,100906.66
2018-12-19T14:58:05.345Z,100907.14
2018-12-19T15:00:34.325Z,100915.41
2018-12-19T15:03:03.419Z,100906.27
2018-12-19T15:05:31.989Z,100914.17
2018-12-19T15:08:00.627Z,100916.25
2018-12-19T15:10:32.707Z,100921.44
2018-12-19T15:13:01.377Z,100924.97
2018-12-19T15:15:30.069Z,100920.64
2018-12-19T15:17:58.839Z,100910.98
2018-12-19T15:20:27.434Z,100918.03
2018-12-19T15:22:56.040Z,100911.42
2018-12-19T15:25:24.999Z,100905.80
2018-12-19T15:27:53.633Z,100918.83
2018-12-19T15:30:22.350Z,100914.47
2018-12-19T15:32:51.195Z,100913.20
2018-12-19T15:35:19.851Z,100913.59
2018-12-19T15:37:48.465Z,100904.45
2018-12-19T15:40:17.129Z,100905.28
2018-12-19T15:42:45.826Z,100861.89
2018-12-19T15:45:14.418Z,100897.44
2018-12-19T15:50:22.158Z,100895.22
2018-12-19T15:52:50.879Z,100897.87
2018-12-19T15:55:19.519Z,100905.68
2018-12-19T15:57:48.114Z,100909.60
2018-12-19T16:00:17.549Z,100918.31
2018-12-19T16:02:46.213Z,100921.37
2018-12-19T16:05:15.109Z,100920.03
2018-12-19T16:07:43.781Z,100918.36
2018-12-19T16:10:12.608Z,100921.33
2018-12-19T16:12:41.346Z,100909.53
2018-12-19T16:15:10.084Z,100906.98
2018-12-19T16:17:38.845Z,100903.06
2018-12-19T16:20:09.091Z,100900.45
2018-12-19T16:22:37.935Z,100895.30
2018-12-19T16:25:06.702Z,100896.53
2018-12-19T16:27:36.059Z,100813.65
2018-12-19T16:30:05.308Z,100893.91
2018-12-19T16:32:34.124Z,100888.32
2018-12-19T16:35:02.898Z,100898.78
2018-12-19T16:37:31.977Z,100895.73
2018-12-19T16:40:00.566Z,100892.64
2018-12-19T16:42:29.393Z,100895.30
2018-12-19T16:44:58.113Z,100898.34
2018-12-19T16:47:26.831Z,100900.48
2018-12-19T16:49:55.390Z,100892.20
2018-12-19T16:52:23.978Z,100889.62
2018-12-19T16:54:52.657Z,100890.06
2018-12-19T16:57:21.264Z,100876.98
2018-12-19T16:59:50.179Z,100880.44
2018-12-19T17:02:18.814Z,100875.69
2018-12-19T17:04:47.370Z,100879.61
2018-12-19T17:07:15.923Z,100884.80
2018-12-19T17:09:44.430Z,100879.61
2018-12-19T17:12:13.461Z,100886.65
2018-12-19T17:14:42.105Z,100894.02
2018-12-19T17:17:10.892Z,100824.94
2018-12-19T17:19:39.496Z,100897.51
2018-12-19T17:22:08.279Z,100891.88
2018-12-19T17:24:41.262Z,100894.06
2018-12-19T17:27:10.410Z,100884.03
2018-12-19T17:29:39.730Z,100887.52
2018-12-19T17:32:08.890Z,100888.43
2018-12-19T17:34:37.543Z,100878.95
2018-12-19T17:37:06.682Z,100884.98
2018-12-19T17:39:35.493Z,100885.42
2018-12-19T17:42:04.629Z,100890.21
2018-12-19T17:44:33.275Z,100884.18
2018-12-19T17:47:02.311Z,100875.47
2018-12-19T17:49:31.156Z,100878.95
2018-12-19T17:52:00.251Z,100880.73
2018-12-19T17:54:29.023Z,100867.66
2018-12-19T17:56:57.600Z,100873.76
2018-12-19T17:59:26.283Z,100879.10
2018-12-19T18:01:54.820Z,100876.45
2018-12-19T18:04:23.891Z,100872.56
2018-12-19T18:06:52.483Z,100872.89
2018-12-19T18:09:21.241Z,100880.73
2018-12-19T18:11:49.880Z,100883.39
2018-12-19T18:14:18.786Z,100881.20
2018-12-19T18:16:47.712Z,100878.19
2018-12-19T18:19:23.194Z,100880.80
2018-12-19T18:21:47.191Z,100879.14
2018-12-19T18:24:15.902Z,100873.88
2018-12-19T18:26:44.766Z,100846.94
2018-12-19T18:29:13.354Z,100869.05
2018-12-19T18:31:42.265Z,100868.68
2018-12-19T18:34:10.902Z,100874.74
2018-12-19T18:36:39.985Z,100817.57
2018-12-19T18:39:09.820Z,100873.00
2018-12-19T18:41:38.538Z,100872.20
2018-12-19T18:44:07.186Z,100871.30
2018-12-19T18:46:36.174Z,100869.19
2018-12-19T18:49:05.166Z,100865.30
2018-12-19T18:51:34.002Z,100863.56
2018-12-19T18:54:02.602Z,100844.83
2018-12-19T18:56:31.298Z,100866.28
2018-12-19T18:59:00.479Z,100763.38
2018-12-19T19:01:29.114Z,100871.05
2018-12-19T19:03:58.015Z,100870.64
2018-12-19T19:06:26.640Z,100873.25
2018-12-19T19:08:55.767Z,100870.61
2018-12-19T19:11:24.958Z,100877.17
2018-12-19T19:13:53.534Z,100876.73
2018-12-19T19:16:22.090Z,100878.48
2018-12-19T19:18:50.726Z,100875.80
2018-12-19T19:21:19.632Z,100822.20
2018-12-19T19:23:48.219Z,100879.83
2018-12-19T19:26:16.878Z,100874.70
2018-12-19T19:28:45.599Z,100866.03
2018-12-19T19:31:14.239Z,100870.78
2018-12-19T19:33:42.984Z,100861.30
2018-12-19T19:36:11.691Z,100878.30
2018-12-19T19:38:41.070Z,100871.76
2018-12-19T19:41:10.064Z,100865.70
2018-12-19T19:43:39.133Z,100874.45
2018-12-19T19:46:07.800Z,100864.06
2018-12-19T19:48:36.631Z,100864.94
2018-12-19T19:51:05.310Z,100869.29
2018-12-19T19:53:34.194Z,100869.36
2018-12-19T19:56:03.008Z,100868.99
2018-12-19T19:58:31.722Z,100879.05
2018-12-19T20:01:00.319Z,100875.70
2018-12-19T20:03:28.867Z,100888.36
2018-12-19T20:05:57.920Z,100885.71
2018-12-19T20:08:26.526Z,100886.95
2018-12-19T20:10:55.401Z,100885.28
2018-12-19T20:13:24.100Z,100884.44
2018-12-19T20:15:52.869Z,100888.96
2018-12-19T20:18:21.464Z,100888.06
2018-12-19T20:20:50.139Z,100885.52
2018-12-19T20:23:19.077Z,100771.73
2018-12-19T20:25:47.732Z,100884.27
2018-12-19T20:28:16.889Z,100892.11
2018-12-19T20:30:45.459Z,100891.77
2018-12-19T20:33:14.592Z,100893.98
2018-12-19T20:35:43.291Z,100891.84
2018-12-19T20:38:11.975Z,100891.90
2018-12-19T20:40:40.685Z,100898.05
2018-12-19T20:43:09.334Z,100897.25
2018-12-19T20:45:38.667Z,100876.22
2018-12-19T20:48:07.473Z,100884.59
2018-12-19T20:50:36.536Z,100886.80
2018-12-19T20:53:05.282Z,100893.34
2018-12-19T20:55:34.211Z,100838.86
2018-12-19T20:58:02.839Z,100892.09
2018-12-19T21:00:31.995Z,100886.53
2018-12-19T21:03:00.703Z,100892.22
2018-12-19T21:05:29.348Z,100894.89
2018-12-19T21:07:57.919Z,100848.92
2018-12-19T21:10:26.531Z,100887.96
2018-12-19T21:12:55.620Z,100892.78
2018-12-19T21:15:24.205Z,100890.58
2018-12-19T21:17:57.939Z,100804.71
2018-12-19T21:20:26.602Z,100886.78
2018-12-19T21:22:55.140Z,100882.55
2018-12-19T21:25:23.868Z,100885.47
2018-12-19T21:27:52.660Z,100894.67
2018-12-19T21:30:21.218Z,100892.88
2018-12-19T21:32:50.394Z,100896.75
2018-12-19T21:35:19.135Z,100897.63
2018-12-19T21:37:48.008Z,100895.02
2018-12-19T21:40:16.694Z,100892.88
2018-12-19T21:42:45.387Z,100892.50
2018-12-19T21:45:14.030Z,100897.81
2018-12-19T21:47:42.738Z,100893.83
2018-12-19T21:50:11.469Z,100900.36
2018-12-19T21:52:40.321Z,100899.64
2018-12-19T21:57:48.021Z,100899.58
2018-12-19T22:00:22.588Z,100893.89
2018-12-19T22:02:51.292Z,100900.82
2018-12-19T22:05:20.437Z,100901.66
2018-12-19T22:07:49.035Z,100902.97
2018-12-19T22:12:57.284Z,100857.49
2018-12-19T22:15:25.897Z,100903.38
2018-12-19T22:17:59.838Z,100902.06
2018-12-19T22:20:28.595Z,100899.45
2018-12-19T22:22:57.189Z,100903.88
2018-12-19T22:25:25.951Z,100908.25
2018-12-19T22:27:54.583Z,100910.39
2018-12-19T22:30:23.222Z,100905.11
2018-12-19T22:32:52.078Z,100908.59
2018-12-19T22:35:20.834Z,100905.58
2018-12-19T22:37:49.482Z,100915.55
2018-12-19T22:40:18.262Z,100916.86
2018-12-19T22:42:47.403Z,100917.27
2018-12-19T22:45:15.952Z,100916.86
2018-12-19T22:47:44.926Z,100916.37
2018-12-19T22:50:14.264Z,100926.81
2018-12-19T22:55:09.601Z,100862.25
2018-12-19T22:57:38.223Z,100921.09
2018-12-19T23:00:12.231Z,100920.72
2018-12-19T23:02:46.083Z,100918.11
2018-12-19T23:05:16.999Z,100910.68
2018-12-19T23:07:45.619Z,100919.88
2018-12-19T23:10:14.475Z,100921.62
2018-12-19T23:12:43.236Z,100906.55
2018-12-19T23:15:11.938Z,100916.92
2018-12-19T23:17:40.940Z,100919.88
2018-12-19T23:20:11.022Z,100916.86
2018-12-19T23:22:39.926Z,100917.67
2018-12-19T23:25:08.685Z,100922.08
2018-12-19T23:27:38.898Z,100912.51
2018-12-19T23:30:08.602Z,100909.09
2018-12-19T23:32:37.538Z,100920.40
2018-12-19T23:35:06.437Z,100912.16
2018-12-19T23:37:35.548Z,100915.23
2018-12-19T23:40:04.423Z,100916.08
2018-12-19T23:42:33.535Z,100917.85
2018-12-19T23:45:02.199Z,100915.23
2018-12-19T23:47:30.970Z,100912.57
2018-12-19T23:49:59.512Z,100909.98
2018-12-19T23:52:28.120Z,100909.55
2018-12-19T23:54:57.042Z,100867.81
2018-12-19T23:57:25.753Z,100906.48
2018-12-19T23:59:55.346Z,100911.73
